createdAt,value
2019-03-05T00:03:03.177Z,67.3
2019-03-05T00:08:02.897Z,68.8
2019-03-05T00:13:02.948Z,69.4
2019-03-05T00:18:02.942Z,71
2019-03-05T00:23:02.962Z,73.9
2019-03-05T00:28:02.966Z,75.6
2019-03-05T00:33:03.147Z,77.2
2019-03-05T00:38:03.191Z,76.6
2019-03-05T00:43:02.902Z,77.1
2019-03-05T00:48:03.167Z,76.6
2019-03-05T00:53:02.974Z,77.1
2019-03-05T00:58:02.951Z,76.4
2019-03-05T01:03:02.975Z,76.8
2019-03-05T01:08:02.976Z,77.2
2019-03-05T01:13:03.109Z,75.7
2019-03-05T01:18:03.144Z,77.3
2019-03-05T01:23:02.975Z,77.5
2019-03-05T01:28:02.981Z,77.6
2019-03-05T01:33:03.143Z,76.8
2019-03-05T01:38:03.210Z,78.2
2019-03-05T01:43:03.110Z,77.6
2019-03-05T01:48:03.149Z,78.9
2019-03-05T01:53:03.186Z,79.6
2019-03-05T01:58:03.010Z,78.8
2019-03-05T02:03:03.134Z,78.8
2019-03-05T02:08:03.185Z,78.1
2019-03-05T02:13:03.060Z,76.2
2019-03-05T02:18:03.009Z,73.7
2019-03-05T02:23:03.183Z,73.1
2019-03-05T02:28:03.212Z,73
2019-03-05T02:33:03.269Z,74.1
2019-03-05T02:38:06.166Z,72.3
2019-03-05T02:43:03.235Z,72.6
2019-03-05T02:48:03.025Z,70.8
2019-03-05T02:53:03.203Z,68.8
2019-03-05T02:58:03.042Z,68
2019-03-05T03:03:03.255Z,67.6
2019-03-05T03:08:03.219Z,67.4
2019-03-05T03:13:03.031Z,65.8
2019-03-05T03:18:03.214Z,65.8
2019-03-05T03:23:03.064Z,65.2
2019-03-05T03:28:03.232Z,65.4
2019-03-05T03:33:03.257Z,64.8
2019-03-05T03:38:03.336Z,64.9
2019-03-05T03:43:03.039Z,65.7
2019-03-05T03:48:03.064Z,65
2019-03-05T03:53:03.182Z,64.3
2019-03-05T03:58:03.310Z,65
2019-03-05T04:03:03.263Z,65.3
2019-03-05T04:08:03.306Z,65.5
2019-03-05T04:13:03.211Z,65.6
2019-03-05T04:18:03.269Z,65.9
2019-03-05T04:23:03.058Z,66.5
2019-03-05T04:28:03.210Z,64.9
2019-03-05T04:33:03.293Z,66.7
2019-03-05T04:38:03.084Z,66.5
2019-03-05T04:43:03.328Z,65.5
2019-03-05T04:48:03.089Z,65.2
2019-03-05T04:53:03.186Z,66.1
2019-03-05T04:58:03.168Z,65.4
2019-03-05T05:03:03.210Z,65
2019-03-05T05:08:03.297Z,64.5
2019-03-05T05:13:03.104Z,65.2
2019-03-05T05:18:03.261Z,64.9
2019-03-05T05:23:03.113Z,65
2019-03-05T05:28:03.100Z,65.7
2019-03-05T05:33:03.099Z,66.3
2019-03-05T05:38:03.100Z,65.5
2019-03-05T05:43:03.337Z,66.2
2019-03-05T05:48:03.245Z,65.2
2019-03-05T05:53:03.126Z,65.6
2019-03-05T05:58:03.230Z,65.8
2019-03-05T06:03:03.387Z,66
2019-03-05T06:08:03.240Z,66.1
2019-03-05T06:13:03.384Z,65.4
2019-03-05T06:18:03.131Z,65.7
2019-03-05T06:23:03.291Z,65
2019-03-05T06:28:03.289Z,64.8
2019-03-05T06:33:03.157Z,65.1
2019-03-05T06:38:03.135Z,65.2
2019-03-05T06:43:03.146Z,65.2
2019-03-05T06:48:03.137Z,65.7
2019-03-05T06:53:03.402Z,65.5
2019-03-05T06:58:03.139Z,65.3
2019-03-05T07:03:03.179Z,64.9
2019-03-05T07:08:03.283Z,64.8
2019-03-05T07:13:03.181Z,64
2019-03-05T07:18:03.372Z,63.9
2019-03-05T07:23:03.341Z,63.4
2019-03-05T07:28:03.123Z,62.7
2019-03-05T07:33:03.372Z,61.3
2019-03-05T07:38:03.397Z,62.4
2019-03-05T07:43:03.182Z,60.3
2019-03-05T07:48:03.365Z,59.9
2019-03-05T07:53:03.404Z,61.1
2019-03-05T07:58:03.341Z,60.5
2019-03-05T08:03:03.374Z,61.3
2019-03-05T08:08:03.389Z,60.9
2019-03-05T08:13:03.442Z,60.8
2019-03-05T08:18:03.328Z,60.7
2019-03-05T08:23:03.424Z,59.6
2019-03-05T08:28:03.442Z,60.5
2019-03-05T08:33:03.358Z,61.2
2019-03-05T08:38:03.432Z,60.8
2019-03-05T08:43:03.476Z,59.5
2019-03-05T08:48:03.221Z,59.1
2019-03-05T08:53:03.219Z,58.1
2019-03-05T08:58:03.447Z,57.9
2019-03-05T09:03:03.382Z,56.9
2019-03-05T09:08:03.230Z,56.4
2019-03-05T09:13:03.233Z,55.8
2019-03-05T09:18:03.494Z,60.9
2019-03-05T09:23:03.238Z,62.6
2019-03-05T09:28:03.441Z,61.1
2019-03-05T09:33:03.226Z,61.2
2019-03-05T09:38:03.268Z,59.3
2019-03-05T09:43:03.470Z,59.6
2019-03-05T09:48:03.374Z,58
2019-03-05T09:53:03.506Z,57.9
2019-03-05T09:58:08.881Z,58.6
2019-03-05T10:03:03.244Z,57
2019-03-05T10:08:03.252Z,56
2019-03-05T10:13:04.752Z,54.6
2019-03-05T10:18:13.272Z,52.9
2019-03-05T10:23:03.378Z,53.8
2019-03-05T10:28:03.247Z,53.3
2019-03-05T10:33:03.240Z,54.7
2019-03-05T10:38:03.512Z,52.8
2019-03-05T10:43:09.240Z,53.5
2019-03-05T10:48:03.450Z,51.1
2019-03-05T10:53:03.412Z,50.6
2019-03-05T10:58:03.421Z,51.2
2019-03-05T11:03:03.462Z,50.5
2019-03-05T11:08:03.412Z,50.1
2019-03-05T11:13:03.281Z,47.9
2019-03-05T11:18:03.446Z,48.2
2019-03-05T11:23:03.272Z,46.9
2019-03-05T11:28:03.427Z,48.8
2019-03-05T11:33:03.412Z,48.8
2019-03-05T11:38:03.676Z,49.1
2019-03-05T11:43:03.293Z,47.6
2019-03-05T11:48:03.532Z,47.5
2019-03-05T11:53:03.339Z,49.5
2019-03-05T11:58:03.424Z,49
2019-03-05T12:03:03.462Z,47.8
2019-03-05T12:08:03.509Z,49.4
2019-03-05T12:13:03.335Z,49.1
2019-03-05T12:18:03.313Z,51.4
2019-03-05T12:23:10.273Z,52.1
2019-03-05T12:28:11.439Z,51.9
2019-03-05T12:33:03.471Z,50.2
2019-03-05T12:38:03.511Z,48.3
2019-03-05T12:43:03.319Z,49.4
2019-03-05T12:48:03.472Z,49.8
2019-03-05T12:53:03.327Z,53.1
2019-03-05T12:58:03.536Z,55.6
2019-03-05T13:03:03.326Z,55.4
2019-03-05T13:08:03.496Z,54.1
2019-03-05T13:13:03.543Z,53.4
2019-03-05T13:18:03.588Z,51.7
2019-03-05T13:23:10.553Z,52.8
2019-03-05T13:28:04.529Z,52.4
2019-03-05T13:33:03.567Z,54.1
2019-03-05T13:38:09.420Z,52
2019-03-05T13:43:03.361Z,50.4
2019-03-05T13:48:03.305Z,50.8
2019-03-05T13:53:15.919Z,48.8
2019-03-05T13:58:03.345Z,46.5
2019-03-05T14:03:03.364Z,42.3
2019-03-05T14:08:03.398Z,42.6
2019-03-05T14:13:03.592Z,40.9
2019-03-05T14:18:03.373Z,41.3
2019-03-05T14:23:03.555Z,40.8
2019-03-05T14:28:03.585Z,39.6
2019-03-05T14:33:03.403Z,41.8
2019-03-05T14:38:03.694Z,41.5
2019-03-05T14:43:03.411Z,40.5
2019-03-05T14:48:04.813Z,40.1
2019-03-05T14:53:03.565Z,40.3
2019-03-05T14:58:03.628Z,41.4
2019-03-05T15:03:03.647Z,42.5
2019-03-05T15:08:03.672Z,42.1
2019-03-05T15:13:19.825Z,42.3
2019-03-05T15:18:03.685Z,42.4
2019-03-05T15:23:03.689Z,41.9
2019-03-05T15:28:03.576Z,42.7
2019-03-05T15:33:03.594Z,42.7
2019-03-05T15:38:03.625Z,43.5
2019-03-05T15:43:03.515Z,40.5
2019-03-05T15:48:03.684Z,41.7
2019-03-05T15:53:03.484Z,43.7
2019-03-05T15:58:03.424Z,43.1
2019-03-05T16:03:03.527Z,43.1
2019-03-05T16:08:03.780Z,43.6
2019-03-05T16:13:04.494Z,44.9
2019-03-05T16:18:06.796Z,45
2019-03-05T16:23:03.486Z,45.3
2019-03-05T16:28:07.622Z,46
2019-03-05T16:33:03.433Z,44.7
2019-03-05T16:38:03.439Z,46.5
2019-03-05T16:43:03.431Z,47.2
2019-03-05T16:48:03.485Z,48.1
2019-03-05T16:53:03.448Z,47.8
2019-03-05T16:58:03.479Z,48.2
2019-03-05T17:03:03.654Z,47.6
2019-03-05T17:08:03.463Z,46.1
2019-03-05T17:13:03.512Z,47.8
2019-03-05T17:18:03.458Z,48.8
2019-03-05T17:23:03.516Z,48.8
2019-03-05T17:28:03.467Z,51
2019-03-05T17:33:03.733Z,52.8
2019-03-05T17:38:03.484Z,52.4
2019-03-05T17:43:03.470Z,53.4
2019-03-05T17:48:03.507Z,53.1
2019-03-05T17:53:03.493Z,53.3
2019-03-05T17:58:03.499Z,54.4
2019-03-05T18:03:03.513Z,54.6
2019-03-05T18:08:03.514Z,54.4
2019-03-05T18:13:03.499Z,55
2019-03-05T18:18:04.702Z,56.2
2019-03-05T18:23:03.855Z,56.1
2019-03-05T18:28:03.550Z,56.9
2019-03-05T18:33:05.514Z,57.8
2019-03-05T18:38:04.018Z,59
2019-03-05T18:43:04.263Z,60.6
2019-03-05T18:48:04.284Z,61.5
2019-03-05T18:53:04.233Z,64.5
2019-03-05T18:58:03.592Z,67.2
2019-03-05T19:03:03.875Z,69.2
2019-03-05T19:08:03.660Z,69.8
2019-03-05T19:13:04.406Z,70.1
2019-03-05T19:18:03.911Z,72.1
2019-03-05T19:23:04.100Z,73.1
2019-03-05T19:28:03.646Z,73.1
2019-03-05T19:33:04.494Z,74.3
2019-03-05T19:38:04.005Z,74.9
2019-03-05T19:43:04.762Z,76.9
2019-03-05T19:48:04.603Z,78.3
2019-03-05T19:53:03.803Z,76.9
2019-03-05T19:58:04.462Z,77.6
2019-03-05T20:03:03.766Z,80
2019-03-05T20:08:03.880Z,80.6
2019-03-05T20:13:05.183Z,79.5
2019-03-05T20:18:07.256Z,80.6
2019-03-05T20:23:04.252Z,81.7
2019-03-05T20:28:04.461Z,82.2
2019-03-05T20:33:04.490Z,80.4
2019-03-05T20:38:04.343Z,80.8
2019-03-05T20:43:04.230Z,82.5
2019-03-05T20:48:04.206Z,82.9
2019-03-05T20:53:04.860Z,83.5
2019-03-05T20:58:03.930Z,81.3
2019-03-05T21:03:04.606Z,82
2019-03-05T21:08:04.628Z,83.4
2019-03-05T21:13:04.221Z,82.4
2019-03-05T21:18:04.708Z,83.1
2019-03-05T21:23:04.334Z,82.5
2019-03-05T21:28:04.689Z,82.3
2019-03-05T21:33:04.392Z,82.5
2019-03-05T21:38:04.009Z,83
2019-03-05T21:43:03.692Z,83.5
2019-03-05T21:48:03.881Z,83.3
2019-03-05T21:53:03.640Z,84.4
2019-03-05T21:58:03.637Z,84.7
2019-03-05T22:03:03.822Z,83.5
2019-03-05T22:08:03.625Z,83.4
2019-03-05T22:13:03.614Z,84.4
2019-03-05T22:18:03.632Z,85.2
2019-03-05T22:23:03.590Z,84.8
2019-03-05T22:28:03.599Z,84.7
2019-03-05T22:33:03.725Z,84.3
2019-03-05T22:38:03.632Z,84.7
2019-03-05T22:43:04.151Z,84.5
2019-03-05T22:48:03.643Z,83.4
2019-03-05T22:53:03.731Z,84.4
2019-03-05T22:58:03.623Z,83
2019-03-05T23:03:03.807Z,83.4
2019-03-05T23:08:03.857Z,82.8
2019-03-05T23:13:03.752Z,83.5
2019-03-05T23:18:03.868Z,84.1
2019-03-05T23:23:03.861Z,82.9
2019-03-05T23:28:03.649Z,83.3
2019-03-05T23:33:03.679Z,83.6
2019-03-05T23:38:03.659Z,83.5
2019-03-05T23:43:03.874Z,82.6
2019-03-05T23:48:03.814Z,81.7
2019-03-05T23:53:04.026Z,82.4
2019-03-05T23:58:03.801Z,82.1
